»·PEaware :: N701GT KMRY-KPSP

N701GT :: KMRY-KPSP

FLIGHT INFORMATION

Flight Status: Arrived
Operator: Privately registered:
United States
More flights under this callsign
Pilot: Anonymous 17564 (17564)
Aircraft: CESSNA 310
(C310)
More flights by this aircraft type
Origin: KMRY Monterey Peninsula
United States
Destination: KPSP Palm Springs Intl
United States
More flights between these airports :: More routes between these airports
Route: +MRY4 SNS V137 AVE V107 FIM V186 NIKKL V64 TRM
File this flight plan on PilotEdge
Remarks:
Altitude:
(Current/Filed)
15,000ft
Speed:
(Current/Filed)
180kts
Departed: 28-Jul-18 04:56 PM
Arrived: 28-Jul-18 07:05 PM
Distance/Time
Traveled:
310nm/2:08
Distance/Time
To Go:
Arrived

Flight Plot

Page will automatically refresh every two minutes.


Map Options




Map Legend


Flown Route
Filed Route
Departure Airport
Arrival Airport
Navaid (VOR, NDB)
Fix

Horizontal Profiles

Position Reports

Time Latitude Longitude Heading Altitude Ground
Speed
28-Jul-18 16:38 36.588835 -121.853876 245 208ft 0kts
28-Jul-18 16:39 36.588835 -121.853876 245 208ft 0kts
28-Jul-18 16:40 36.588835 -121.853876 245 208ft 0kts
28-Jul-18 16:41 36.588835 -121.853876 245 208ft 0kts
28-Jul-18 16:42 36.588835 -121.853876 245 208ft 0kts
28-Jul-18 16:43 36.588835 -121.853876 245 208ft 0kts
28-Jul-18 16:44 36.588835 -121.853876 245 208ft 0kts
28-Jul-18 16:45 36.588835 -121.853876 245 208ft 0kts
28-Jul-18 16:46 36.588835 -121.853876 245 208ft 0kts
28-Jul-18 16:47 36.588835 -121.853876 245 208ft 0kts
28-Jul-18 16:48 36.588835 -121.853876 245 208ft 0kts
28-Jul-18 16:49 36.588835 -121.853876 245 208ft 0kts
28-Jul-18 16:50 36.588933 -121.853974 40 208ft 0kts
28-Jul-18 16:51 36.589040 -121.852919 109 208ft 12kts
28-Jul-18 16:52 36.587587 -121.848560 112 208ft 17kts
28-Jul-18 16:53 36.585570 -121.842973 115 208ft 11kts
28-Jul-18 16:54 36.584099 -121.838733 112 208ft 15kts
28-Jul-18 16:55 36.582886 -121.834872 98 208ft 0kts
28-Jul-18 16:56 36.582861 -121.834607 94 208ft 10kts
28-Jul-18 16:57 36.585440 -121.840875 302 208ft 66kts
28-Jul-18 16:58 36.599216 -121.874901 319 1430ft 138kts
28-Jul-18 16:59 36.637820 -121.890217 342 2723ft 149kts
28-Jul-18 17:00 36.668176 -121.871963 85 3795ft 161kts
28-Jul-18 17:01 36.667729 -121.815655 86 4803ft 163kts
28-Jul-18 17:02 36.666841 -121.759329 88 5784ft 162kts
28-Jul-18 17:03 36.665853 -121.703757 88 6756ft 159kts
28-Jul-18 17:04 36.664841 -121.649173 88 7742ft 156kts
28-Jul-18 17:05 36.661020 -121.596324 121 8725ft 153kts
28-Jul-18 17:06 36.636703 -121.553576 123 9720ft 148kts
28-Jul-18 17:07 36.613834 -121.512031 124 10740ft 147kts
28-Jul-18 17:08 36.590744 -121.470230 124 11484ft 151kts
28-Jul-18 17:09 36.565141 -121.423932 124 12021ft 168kts
28-Jul-18 17:10 36.538775 -121.376311 124 12515ft 164kts
28-Jul-18 17:11 36.511599 -121.327217 125 13031ft 174kts
28-Jul-18 17:12 36.483558 -121.276753 125 13530ft 175kts
28-Jul-18 17:13 36.456778 -121.228520 125 14009ft 164kts
28-Jul-18 17:14 36.431226 -121.182560 126 14496ft 159kts
28-Jul-18 17:15 36.408494 -121.141812 126 14929ft 169kts
28-Jul-18 17:16 36.380956 -121.092495 126 14953ft 178kts
28-Jul-18 17:17 36.352439 -121.041482 126 14949ft 180kts
28-Jul-18 17:18 36.323685 -120.990123 126 14944ft 181kts
28-Jul-18 17:19 36.295039 -120.939033 126 14928ft 179kts
28-Jul-18 17:20 36.266714 -120.888591 126 14924ft 178kts
28-Jul-18 17:21 36.238383 -120.838208 126 14918ft 177kts
28-Jul-18 17:22 36.210525 -120.788752 126 14912ft 173kts
28-Jul-18 17:23 36.183159 -120.740233 126 14897ft 172kts
28-Jul-18 17:24 36.155773 -120.691744 126 14894ft 171kts
28-Jul-18 17:25 36.125810 -120.644030 132 14885ft 176kts
28-Jul-18 17:26 36.093193 -120.598327 132 14987ft 174kts
28-Jul-18 17:27 36.059460 -120.551048 132 14928ft 183kts
28-Jul-18 17:28 36.026352 -120.504722 132 14926ft 175kts
28-Jul-18 17:29 35.994475 -120.460151 132 14922ft 172kts
28-Jul-18 17:30 35.962886 -120.416091 132 14922ft 170kts
28-Jul-18 17:31 35.931407 -120.372218 132 14921ft 170kts
28-Jul-18 17:32 35.899705 -120.328092 132 14926ft 172kts
28-Jul-18 17:33 35.867082 -120.282736 132 14916ft 176kts
28-Jul-18 17:34 35.834508 -120.237472 132 14913ft 175kts
28-Jul-18 17:35 35.802471 -120.193051 133 14911ft 172kts
28-Jul-18 17:36 35.770784 -120.149177 133 14911ft 171kts
28-Jul-18 17:37 35.739270 -120.105589 133 14915ft 171kts
28-Jul-18 17:38 35.705891 -120.059496 133 14912ft 181kts
28-Jul-18 17:39 35.671644 -120.012252 133 14914ft 184kts
28-Jul-18 17:40 35.634604 -119.967342 146 14931ft 182kts
28-Jul-18 17:41 35.601057 -119.938478 146 14917ft 188kts
28-Jul-18 17:42 35.562469 -119.905099 146 14922ft 186kts
28-Jul-18 17:43 35.519753 -119.868188 146 14918ft 184kts
28-Jul-18 17:44 35.478865 -119.832890 146 14919ft 175kts
28-Jul-18 17:45 35.437656 -119.797362 146 14916ft 180kts
28-Jul-18 17:46 35.398020 -119.763220 146 14963ft 171kts
28-Jul-18 17:47 35.359283 -119.729901 146 14961ft 169kts
28-Jul-18 17:48 35.321064 -119.697065 146 14961ft 169kts
28-Jul-18 17:49 35.282251 -119.663762 146 14964ft 171kts
28-Jul-18 17:50 35.243494 -119.630539 146 14965ft 169kts
28-Jul-18 17:51 35.202850 -119.595748 146 14974ft 178kts
28-Jul-18 17:52 35.163294 -119.561891 146 14977ft 172kts
28-Jul-18 17:53 35.124271 -119.528590 146 14980ft 169kts
28-Jul-18 17:54 35.085543 -119.495558 146 14992ft 169kts
28-Jul-18 17:55 35.047778 -119.463391 146 14992ft 180kts
28-Jul-18 17:56 35.008257 -119.429751 146 15004ft 172kts
28-Jul-18 17:57 34.968813 -119.396224 146 15024ft 170kts
28-Jul-18 17:58 34.930204 -119.363456 146 15024ft 179kts
28-Jul-18 17:59 34.888312 -119.327926 146 15040ft 171kts
28-Jul-18 18:00 34.848980 -119.294616 146 15059ft 171kts
28-Jul-18 18:01 34.807993 -119.259953 145 15074ft 179kts
28-Jul-18 18:02 34.766416 -119.224826 145 15065ft 181kts
28-Jul-18 18:03 34.725642 -119.190416 146 15086ft 172kts
28-Jul-18 18:04 34.686229 -119.157203 146 15088ft 172kts
28-Jul-18 18:05 34.644905 -119.122428 145 15071ft 179kts
28-Jul-18 18:06 34.605040 -119.088900 146 15074ft 172kts
28-Jul-18 18:07 34.563778 -119.054241 146 15070ft 178kts
28-Jul-18 18:08 34.524018 -119.020911 146 15065ft 171kts
28-Jul-18 18:09 34.484966 -118.988202 146 15061ft 168kts
28-Jul-18 18:10 34.446563 -118.956063 146 15049ft 168kts
28-Jul-18 18:11 34.408128 -118.923908 146 15052ft 167kts
28-Jul-18 18:12 34.369927 -118.892041 146 15051ft 167kts
28-Jul-18 18:13 34.345027 -118.845733 113 15031ft 169kts
28-Jul-18 18:14 34.326538 -118.792026 113 14270ft 175kts
28-Jul-18 18:15 34.308166 -118.738388 114 13472ft 172kts
28-Jul-18 18:16 34.289689 -118.684323 113 12673ft 173kts
28-Jul-18 18:17 34.271032 -118.629842 113 11891ft 178kts
28-Jul-18 18:18 34.251476 -118.572585 112 11104ft 185kts
28-Jul-18 18:19 34.231215 -118.513950 118 10296ft 186kts
28-Jul-18 18:20 34.206852 -118.459751 118 9510ft 183kts
28-Jul-18 18:21 34.185988 -118.402396 104 9019ft 186kts
28-Jul-18 18:22 34.172541 -118.339717 105 8991ft 191kts
28-Jul-18 18:23 34.158293 -118.278316 105 8990ft 188kts
28-Jul-18 18:24 34.142854 -118.223372 111 9009ft 189kts
28-Jul-18 18:25 34.123625 -118.162125 110 8993ft 193kts
28-Jul-18 18:26 34.105278 -118.102530 110 8999ft 192kts
28-Jul-18 18:27 34.086169 -118.040298 110 8992ft 193kts
28-Jul-18 18:28 34.067133 -117.978408 110 8972ft 192kts
28-Jul-18 18:29 34.048828 -117.918907 110 8984ft 188kts
28-Jul-18 18:30 34.030522 -117.859599 110 8995ft 188kts
28-Jul-18 18:31 34.012315 -117.800797 110 9022ft 189kts
28-Jul-18 18:32 33.993114 -117.739824 112 9003ft 192kts
28-Jul-18 18:33 33.972272 -117.681697 113 8997ft 188kts
28-Jul-18 18:34 33.954937 -117.632778 113 8993ft 188kts
28-Jul-18 18:35 33.934512 -117.574996 113 8986ft 188kts
28-Jul-18 18:36 33.901127 -117.514649 147 9293ft 181kts
28-Jul-18 18:37 33.859334 -117.480041 145 9878ft 176kts
28-Jul-18 18:38 33.819615 -117.446773 145 10459ft 169kts
28-Jul-18 18:39 33.781557 -117.414942 145 10990ft 167kts
28-Jul-18 18:40 33.748642 -117.387440 145 11093ft 176kts
28-Jul-18 18:41 33.728070 -117.334316 94 11110ft 193kts
28-Jul-18 18:42 33.722931 -117.269157 96 11108ft 194kts
28-Jul-18 18:43 33.717667 -117.205721 96 11134ft 187kts
28-Jul-18 18:44 33.712421 -117.141630 96 11141ft 194kts
28-Jul-18 18:45 33.707151 -117.077898 96 11122ft 189kts
28-Jul-18 18:46 33.701944 -117.015160 96 11103ft 187kts
28-Jul-18 18:47 33.696785 -116.953012 96 11091ft 187kts
28-Jul-18 18:48 33.691536 -116.890162 96 11053ft 189kts
28-Jul-18 18:49 33.686185 -116.825937 96 10850ft 191kts
28-Jul-18 18:50 33.680927 -116.763675 97 10027ft 183kts
28-Jul-18 18:51 33.675669 -116.701996 97 9145ft 188kts
28-Jul-18 18:52 33.670353 -116.639356 97 9037ft 191kts
28-Jul-18 18:53 33.664825 -116.575179 97 9030ft 195kts
28-Jul-18 18:54 33.659113 -116.509273 98 9013ft 198kts
28-Jul-18 18:55 33.653217 -116.441577 98 8671ft 205kts
28-Jul-18 18:56 33.647226 -116.374356 98 7667ft 199kts
28-Jul-18 18:57 33.641445 -116.308913 99 6945ft 185kts
28-Jul-18 18:58 33.649548 -116.253931 35 6147ft 180kts
28-Jul-18 18:59 33.692413 -116.268358 309 4678ft 178kts
28-Jul-18 19:00 33.724773 -116.309867 307 3923ft 147kts
28-Jul-18 19:01 33.738997 -116.343195 284 3872ft 152kts
28-Jul-18 19:02 33.747346 -116.372946 283 3552ft 159kts
28-Jul-18 19:03 33.759663 -116.424084 280 3169ft 161kts
28-Jul-18 19:04 33.781948 -116.465932 323 1695ft 123kts
28-Jul-18 19:05 33.809468 -116.489892 328 784ft 115kts
28-Jul-18 19:06 33.828376 -116.506796 268 480ft 10kts
28-Jul-18 19:07 33.828050 -116.507176 189 480ft 6kts
28-Jul-18 19:08 33.825442 -116.507390 230 480ft 11kts

Navigation Log

Ident Type
Flight plan parsing failed, navigation log unavailable